createdAt,value
2022-12-04T00:03:34.873Z,48.42
2022-12-04T00:08:37.050Z,60.60
2022-12-04T00:13:39.595Z,48.80
2022-12-04T00:18:41.708Z,49.95
2022-12-04T00:23:44.525Z,50.55
2022-12-04T00:28:47.067Z,53.80
2022-12-04T00:33:49.067Z,45.13
2022-12-04T00:38:50.982Z,43.80
2022-12-04T00:43:53.403Z,50.78
2022-12-04T00:48:55.308Z,49.90
2022-12-04T00:53:57.046Z,48.78
2022-12-04T00:59:01.316Z,44.63
2022-12-04T01:04:03.085Z,49.78
2022-12-04T01:09:06.044Z,41.97
2022-12-04T01:14:08.028Z,46.58
2022-12-04T01:19:11.981Z,50.42
2022-12-04T01:24:13.792Z,50.13
2022-12-04T01:29:15.680Z,44.78
2022-12-04T01:34:17.573Z,51.40
2022-12-04T01:39:19.839Z,46.35
2022-12-04T01:44:24.178Z,44.97
2022-12-04T01:49:44.798Z,48.05
2022-12-04T01:54:50.970Z,42.58
2022-12-04T02:00:00.445Z,40.03
2022-12-04T02:05:04.924Z,41.30
2022-12-04T02:10:08.932Z,43.25
2022-12-04T02:15:35.294Z,44.15
2022-12-04T02:20:59.802Z,44.38
2022-12-04T02:26:32.480Z,45.10
2022-12-04T02:31:50.541Z,48.60
2022-12-04T02:37:30.977Z,43.53
2022-12-04T02:42:53.631Z,41.85
2022-12-04T02:47:56.977Z,45.47
2022-12-04T02:53:16.210Z,46.05
2022-12-04T02:58:25.657Z,39.80
2022-12-04T03:03:30.558Z,45.90
2022-12-04T03:08:40.595Z,43.47
2022-12-04T03:13:55.146Z,49.15
2022-12-04T03:19:06.023Z,47.30
2022-12-04T03:24:30.986Z,50.70
2022-12-04T03:30:02.901Z,56.72
2022-12-04T03:35:35.798Z,43.50
2022-12-04T03:40:43.285Z,48.72
2022-12-04T03:45:56.223Z,42.87
2022-12-04T03:51:03.924Z,45.83
2022-12-04T03:56:11.329Z,45.07
2022-12-04T04:01:15.463Z,49.97
2022-12-04T04:06:32.470Z,44.08
2022-12-04T04:11:48.828Z,43.50
2022-12-04T04:17:24.659Z,51.45
2022-12-04T04:22:45.797Z,46.80
2022-12-04T04:27:58.595Z,52.25
2022-12-04T04:33:06.147Z,45.92
2022-12-04T04:38:14.591Z,49.43
2022-12-04T04:43:23.210Z,48.90
2022-12-04T04:48:57.491Z,60.45
2022-12-04T04:54:04.406Z,59.08
2022-12-04T04:59:06.156Z,56.60
2022-12-04T05:04:08.250Z,59.47
2022-12-04T05:09:10.022Z,73.78
2022-12-04T05:14:11.880Z,56.85
2022-12-04T05:19:32.166Z,54.22
2022-12-04T05:24:34.057Z,58.65
2022-12-04T05:29:36.234Z,58.28
2022-12-04T05:34:38.338Z,65.68
2022-12-04T05:39:40.134Z,66.68
2022-12-04T05:44:41.876Z,60.08
2022-12-04T05:49:43.645Z,65.25
2022-12-04T05:54:45.382Z,59.55
2022-12-04T05:59:47.214Z,66.18
2022-12-04T06:04:49.234Z,69.00
2022-12-04T06:09:51.031Z,63.38
2022-12-04T06:14:52.794Z,72.93
2022-12-04T06:19:56.287Z,62.40
2022-12-04T06:24:58.266Z,63.20
2022-12-04T06:30:00.094Z,70.75
2022-12-04T06:35:01.855Z,63.25
2022-12-04T06:40:04.226Z,64.20
2022-12-04T06:45:06.661Z,61.47
2022-12-04T06:50:09.115Z,60.30
2022-12-04T06:55:10.887Z,66.85
2022-12-04T07:00:12.994Z,60.05
2022-12-04T07:05:15.205Z,61.70
2022-12-04T07:10:17.019Z,58.42
2022-12-04T07:15:19.622Z,57.25
2022-12-04T07:20:21.446Z,59.25
2022-12-04T07:25:23.656Z,49.75
2022-12-04T07:30:25.428Z,61.30
2022-12-04T07:35:27.295Z,57.70
2022-12-04T07:40:29.027Z,56.15
2022-12-04T07:45:30.916Z,50.88
2022-12-04T07:50:32.695Z,53.83
2022-12-04T07:55:34.614Z,55.08
2022-12-04T08:00:36.372Z,57.60
2022-12-04T08:05:38.086Z,52.35
2022-12-04T08:10:40.798Z,53.05
2022-12-04T08:15:42.514Z,55.30
2022-12-04T08:20:44.780Z,55.88
2022-12-04T08:25:46.583Z,58.38
2022-12-04T08:30:48.508Z,48.72
2022-12-04T08:35:50.232Z,54.05
2022-12-04T08:40:52.597Z,57.33
2022-12-04T08:46:02.936Z,53.17
2022-12-04T08:51:05.298Z,54.47
2022-12-04T08:56:07.333Z,58.50
2022-12-04T09:01:12.148Z,57.78
2022-12-04T09:06:15.762Z,54.65
2022-12-04T09:11:21.020Z,56.10
2022-12-04T09:16:24.668Z,60.25
2022-12-04T09:21:26.466Z,58.17
2022-12-04T09:26:30.809Z,61.15
2022-12-04T09:31:33.152Z,65.10
2022-12-04T09:36:34.922Z,63.05
2022-12-04T09:41:36.583Z,61.10
2022-12-04T09:46:42.912Z,60.72
2022-12-04T09:51:46.579Z,64.75
2022-12-04T09:56:58.950Z,64.93
2022-12-04T10:02:29.629Z,60.50
2022-12-04T10:07:51.472Z,68.65
2022-12-04T10:13:17.543Z,64.53
2022-12-04T10:18:44.233Z,63.55
2022-12-04T10:24:24.419Z,64.00
2022-12-04T10:29:34.435Z,72.88
2022-12-04T10:34:42.518Z,69.72
2022-12-04T10:39:54.602Z,73.10
2022-12-04T10:44:56.739Z,67.13
2022-12-04T10:50:05.128Z,68.85
2022-12-04T11:00:24.749Z,65.60
2022-12-04T11:05:34.790Z,74.63
2022-12-04T11:10:43.945Z,68.78
2022-12-04T11:15:51.193Z,69.63
2022-12-04T11:20:57.530Z,65.88
2022-12-04T11:26:05.561Z,76.35
2022-12-04T11:31:10.898Z,69.75
2022-12-04T11:36:40.623Z,59.85
2022-12-04T11:41:42.601Z,63.70
2022-12-04T11:46:52.948Z,73.72
2022-12-04T11:51:55.661Z,70.00
2022-12-04T11:57:09.381Z,64.95
2022-12-04T12:02:49.079Z,64.10
2022-12-04T12:08:09.347Z,75.57
2022-12-04T12:13:45.363Z,69.63
2022-12-04T12:18:50.118Z,65.20
2022-12-04T12:23:57.610Z,66.32
2022-12-04T12:29:21.337Z,70.43
2022-12-04T12:34:35.317Z,68.28
2022-12-04T12:39:44.818Z,70.95
2022-12-04T12:44:59.939Z,68.95
2022-12-04T12:50:58.261Z,65.65
2022-12-04T13:01:58.858Z,72.57
2022-12-04T13:12:26.091Z,62.63
2022-12-04T13:17:32.892Z,60.65
2022-12-04T13:22:43.655Z,69.63
2022-12-04T13:28:16.370Z,57.25
2022-12-04T13:33:44.890Z,64.03
2022-12-04T13:39:24.077Z,65.03
2022-12-04T13:44:27.261Z,70.22
2022-12-04T13:49:35.087Z,67.55
2022-12-04T13:54:37.716Z,72.47
2022-12-04T13:59:40.788Z,69.00
2022-12-04T14:05:10.707Z,70.75
2022-12-04T14:10:15.478Z,74.75
2022-12-04T14:15:27.192Z,73.70
2022-12-04T14:20:32.044Z,68.78
2022-12-04T14:25:39.954Z,75.93
2022-12-04T14:30:44.158Z,75.68
2022-12-04T14:36:06.437Z,70.82
2022-12-04T14:41:08.271Z,60.83
2022-12-04T14:46:18.007Z,70.10
2022-12-04T14:51:28.141Z,65.32
2022-12-04T14:56:41.050Z,68.55
2022-12-04T15:01:42.925Z,67.55
2022-12-04T15:06:48.977Z,59.78
2022-12-04T15:12:12.311Z,55.65
2022-12-04T15:17:16.545Z,57.30
2022-12-04T15:22:27.845Z,65.53
2022-12-04T15:27:32.677Z,57.78
2022-12-04T15:32:34.972Z,52.83
2022-12-04T15:37:37.074Z,58.33
2022-12-04T15:42:38.947Z,60.88
2022-12-04T15:47:43.686Z,61.15
2022-12-04T15:52:58.794Z,67.90
2022-12-04T15:58:18.002Z,63.70
2022-12-04T16:03:44.165Z,74.60
2022-12-04T16:08:58.093Z,74.35
2022-12-04T16:14:14.966Z,68.63
2022-12-04T16:19:38.213Z,71.10
2022-12-04T16:24:40.241Z,71.88
2022-12-04T16:29:42.545Z,69.95
2022-12-04T16:34:44.389Z,70.97
2022-12-04T16:39:47.193Z,60.17
2022-12-04T16:44:49.985Z,61.83
2022-12-04T16:49:53.331Z,59.53
2022-12-04T16:54:56.252Z,58.45
2022-12-04T17:00:00.273Z,61.20
2022-12-04T17:05:02.512Z,55.67
2022-12-04T17:10:04.992Z,62.53
2022-12-04T17:15:07.408Z,62.03
2022-12-04T17:20:15.065Z,61.58
2022-12-04T17:25:17.718Z,58.83
2022-12-04T17:30:19.681Z,55.60
2022-12-04T17:35:21.690Z,65.60
2022-12-04T17:40:23.481Z,64.38
2022-12-04T17:45:25.512Z,57.53
2022-12-04T17:50:27.308Z,55.38
2022-12-04T17:55:29.206Z,64.07
2022-12-04T18:00:31.039Z,70.90
2022-12-04T18:05:32.962Z,57.05
2022-12-04T18:10:35.002Z,58.55
2022-12-04T18:15:36.775Z,61.90
2022-12-04T18:20:39.005Z,65.53
2022-12-04T18:25:40.829Z,63.72
2022-12-04T18:30:42.747Z,72.07
2022-12-04T18:35:52.550Z,78.22
2022-12-04T18:40:54.747Z,75.47
2022-12-04T18:46:07.133Z,77.60
2022-12-04T18:51:21.447Z,73.28
2022-12-04T18:56:23.526Z,76.35
2022-12-04T19:01:25.734Z,79.78
2022-12-04T19:06:32.945Z,84.15
2022-12-04T19:11:35.339Z,91.10
2022-12-04T19:16:37.232Z,86.22
2022-12-04T19:21:39.113Z,91.88
2022-12-04T19:26:41.249Z,77.05
2022-12-04T19:31:43.157Z,95.93
2022-12-04T19:36:45.990Z,92.78
2022-12-04T19:41:48.103Z,97.00
2022-12-04T19:46:50.298Z,98.68
2022-12-04T19:51:52.132Z,91.82
2022-12-04T19:56:54.129Z,107.07
2022-12-04T20:01:55.908Z,91.95
2022-12-04T20:06:57.648Z,98.78
2022-12-04T20:11:59.361Z,103.18
2022-12-04T20:17:03.885Z,94.90
2022-12-04T20:22:05.770Z,102.10
2022-12-04T20:27:07.538Z,105.35
2022-12-04T20:32:09.478Z,101.28
2022-12-04T20:37:11.545Z,108.15
2022-12-04T20:42:14.622Z,113.25
2022-12-04T20:47:17.127Z,98.65
2022-12-04T20:52:18.971Z,104.68
2022-12-04T20:57:22.509Z,118.40
2022-12-04T21:02:24.300Z,113.40
2022-12-04T21:07:26.482Z,115.22
2022-12-04T21:12:46.867Z,108.65
2022-12-04T21:17:48.610Z,112.65
2022-12-04T21:22:50.353Z,114.72
2022-12-04T21:27:52.297Z,113.22
2022-12-04T21:32:54.013Z,110.25
2022-12-04T21:37:56.711Z,106.95
2022-12-04T21:42:58.459Z,106.97
2022-12-04T21:48:00.251Z,100.45
2022-12-04T21:53:01.966Z,113.75
2022-12-04T21:58:03.770Z,109.15
2022-12-04T22:03:06.100Z,107.10
2022-12-04T22:08:09.508Z,108.85
2022-12-04T22:13:12.228Z,116.90
2022-12-04T22:18:13.945Z,100.32
2022-12-04T22:23:15.921Z,110.57
2022-12-04T22:28:17.857Z,100.88
2022-12-04T22:33:19.634Z,107.38
2022-12-04T22:38:21.358Z,113.20
2022-12-04T22:43:24.032Z,112.13
2022-12-04T22:48:28.434Z,111.88
2022-12-04T22:53:39.689Z,106.70
2022-12-04T22:58:41.821Z,120.68
2022-12-04T23:03:44.534Z,107.07
2022-12-04T23:08:47.014Z,104.93
2022-12-04T23:13:53.628Z,106.45
2022-12-04T23:18:56.171Z,113.63
2022-12-04T23:23:58.331Z,116.88
2022-12-04T23:29:01.747Z,114.85
2022-12-04T23:34:04.617Z,112.00
2022-12-04T23:39:06.448Z,101.75
2022-12-04T23:44:08.295Z,108.35
2022-12-04T23:49:10.093Z,96.03
2022-12-04T23:54:11.937Z,98.95
2022-12-04T23:59:13.762Z,101.25
